Time;durP1;ratioP1;P1;durP2;ratioP2;P2;SDS_P1;SDS_P2;PMS_P1;PMS_P2;Temp;Humidity;BMP_temperature;BMP_pressure;BME280_temperature;BME280_humidity;BME280_pressure;Samples;Min_cycle;Max_cycle;Signal;HPM_P1;HPM_P2
2022/06/15 00:00:23;;;;;;;4.63;4.23;;;;;13.80;97297.00;;;;5088250;28;20195;-88
2022/06/15 00:03:15;;;;;;;9.07;5.30;;;;;13.90;97296.00;;;;5087494;28;20184;-87
2022/06/15 00:06:05;;;;;;;5.20;4.57;;;;;14.00;97300.00;;;;5057830;28;20240;-90
2022/06/15 00:08:57;;;;;;;5.60;3.97;;;;;14.10;97298.00;;;;5069156;28;20201;-89
2022/06/15 00:11:46;;;;;;;5.53;4.57;;;;;13.80;97297.00;;;;5075636;28;20207;-90
2022/06/15 00:14:35;;;;;;;5.67;4.30;;;;;13.40;97298.00;;;;5071031;28;20565;-90
2022/06/15 00:17:24;;;;;;;7.87;4.47;;;;;13.60;97294.00;;;;5065783;28;20224;-90
2022/06/15 00:20:15;;;;;;;6.70;4.63;;;;;13.70;97298.00;;;;5066091;28;20490;-92
2022/06/15 00:23:04;;;;;;;5.20;4.70;;;;;13.70;97303.00;;;;5072547;28;20203;-90
2022/06/15 00:25:53;;;;;;;6.77;4.17;;;;;13.80;97315.00;;;;5053685;28;20692;-91
2022/06/15 00:28:43;;;;;;;7.17;4.43;;;;;13.60;97303.00;;;;5069594;28;20230;-90
2022/06/15 00:31:32;;;;;;;4.93;4.53;;;;;13.30;97307.00;;;;5071969;28;20727;-89
2022/06/15 00:34:21;;;;;;;7.03;4.33;;;;;13.10;97301.00;;;;5070736;28;20249;-90
2022/06/15 00:37:12;;;;;;;8.13;5.83;;;;;13.20;97300.00;;;;5068041;28;20242;-90
2022/06/15 00:40:01;;;;;;;5.30;4.80;;;;;13.20;97300.00;;;;5053143;28;20223;-89
2022/06/15 00:42:50;;;;;;;8.07;4.03;;;;;12.60;97303.00;;;;5066521;28;20200;-90
2022/06/15 00:45:39;;;;;;;5.00;4.50;;;;;12.50;97301.00;;;;5073603;28;20209;-91
2022/06/15 00:48:28;;;;;;;9.50;4.97;;;;;12.80;97298.00;;;;5069362;28;20223;-91
2022/06/15 00:51:18;;;;;;;5.70;4.70;;;;;13.00;97306.00;;;;5066621;28;20208;-90
2022/06/15 00:54:09;;;;;;;11.97;5.47;;;;;13.20;97303.00;;;;5064649;28;20211;-91
2022/06/15 00:56:58;;;;;;;4.93;4.50;;;;;13.20;97298.00;;;;5064397;28;20231;-91
2022/06/15 00:59:53;;;;;;;8.70;5.90;;;;;12.90;97297.00;;;;5057500;28;20201;-90
2022/06/15 01:02:43;;;;;;;7.40;5.03;;;;;12.80;97304.00;;;;5062661;28;20246;-90
2022/06/15 01:05:37;;;;;;;10.07;5.83;;;;;12.60;97297.00;;;;5071043;28;20200;-90
2022/06/15 01:08:34;;;;;;;6.17;4.40;;;;;12.60;97303.00;;;;5066405;28;20231;-89
2022/06/15 01:11:39;;;;;;;7.50;5.23;;;;;12.70;97308.00;;;;5071119;28;20211;-89
2022/06/15 01:14:53;;;;;;;5.60;5.10;;;;;12.50;97302.00;;;;5052862;28;20200;-91
2022/06/15 01:17:55;;;;;;;5.47;4.60;;;;;12.60;97300.00;;;;5062605;28;20231;-90
2022/06/15 01:21:09;;;;;;;7.63;5.63;;;;;12.50;97294.00;;;;5068493;28;20207;-91
2022/06/15 01:24:30;;;;;;;7.07;5.07;;;;;12.90;97288.00;;;;5065812;28;20248;-90
2022/06/15 01:27:56;;;;;;;6.87;5.23;;;;;12.70;97296.00;;;;5071167;28;20227;-91
2022/06/15 01:30:49;;;;;;;10.73;5.57;;;;;12.50;97290.00;;;;5063192;28;20207;-89
2022/06/15 01:33:43;;;;;;;6.03;5.03;;;;;12.10;97288.00;;;;5070000;28;20200;-89
2022/06/15 01:36:40;;;;;;;7.30;5.73;;;;;12.30;97283.00;;;;5070217;28;20224;-90
2022/06/15 01:39:34;;;;;;;7.87;5.13;;;;;12.40;97287.00;;;;5055929;28;20196;-90
2022/06/15 01:42:29;;;;;;;9.33;5.47;;;;;12.40;97287.00;;;;5059078;28;20192;-90
2022/06/15 01:45:20;;;;;;;7.83;5.37;;;;;12.40;97280.00;;;;5067537;28;20192;-90
2022/06/15 01:48:12;;;;;;;5.60;5.10;;;;;12.00;97280.00;;;;5051735;28;20609;-90
2022/06/15 01:51:09;;;;;;;6.90;4.63;;;;;12.10;97289.00;;;;5067514;28;20204;-89
2022/06/15 01:54:01;;;;;;;7.60;5.07;;;;;12.00;97274.00;;;;5064234;22;20719;-66
2022/06/15 01:56:50;;;;;;;7.37;5.70;;;;;12.40;97279.00;;;;5057744;28;20228;-66
2022/06/15 01:59:43;;;;;;;5.30;4.80;;;;;11.90;97278.00;;;;5057867;28;20196;-66
2022/06/15 02:02:40;;;;;;;9.10;4.83;;;;;11.70;97275.00;;;;5068122;28;20601;-66
2022/06/15 02:05:36;;;;;;;6.10;5.50;;;;;11.70;97276.00;;;;5064911;28;20228;-66
2022/06/15 02:08:30;;;;;;;5.27;4.60;;;;;11.50;97271.00;;;;5068310;28;20220;-67
2022/06/15 02:11:24;;;;;;;7.03;5.00;;;;;11.80;97269.00;;;;5065349;28;20203;-66
2022/06/15 02:14:17;;;;;;;7.27;5.23;;;;;11.90;97266.00;;;;5050698;28;20197;-65
2022/06/15 02:17:10;;;;;;;7.37;5.13;;;;;12.20;97264.00;;;;5067322;28;20208;-66
2022/06/15 02:20:02;;;;;;;8.83;5.37;;;;;12.30;97260.00;;;;5069061;28;20588;-66
2022/06/15 02:22:53;;;;;;;5.43;4.83;;;;;11.80;97265.00;;;;5068953;28;20207;-66
2022/06/15 02:25:45;;;;;;;5.47;4.97;;;;;11.70;97260.00;;;;5057532;28;20227;-66
2022/06/15 02:28:37;;;;;;;6.13;4.43;;;;;11.80;97264.00;;;;5069583;28;20238;-66
2022/06/15 02:31:27;;;;;;;6.10;5.07;;;;;11.80;97256.00;;;;5068883;28;20203;-66
2022/06/15 02:34:17;;;;;;;10.00;5.03;;;;;11.90;97264.00;;;;5065205;28;20976;-66
2022/06/15 02:37:06;;;;;;;6.33;5.20;;;;;11.90;97249.00;;;;5057496;28;20208;-66
2022/06/15 02:39:57;;;;;;;5.73;5.17;;;;;11.60;97257.00;;;;5069067;28;20694;-66
2022/06/15 02:42:47;;;;;;;5.77;5.27;;;;;11.60;97255.00;;;;5069608;28;20768;-66
2022/06/15 02:45:38;;;;;;;6.27;4.97;;;;;11.80;97246.00;;;;5069949;28;20223;-66
2022/06/15 02:48:28;;;;;;;5.67;4.90;;;;;11.80;97248.00;;;;5069050;28;20568;-66
2022/06/15 02:51:21;;;;;;;7.73;5.00;;;;;11.80;97243.00;;;;5069757;28;20208;-65
2022/06/15 02:54:15;;;;;;;6.47;5.70;;;;;11.80;97249.00;;;;5068298;28;20215;-66
2022/06/15 02:57:06;;;;;;;6.43;4.57;;;;;11.80;97246.00;;;;5068597;28;20219;-66
2022/06/15 02:59:56;;;;;;;5.10;4.60;;;;;11.70;97256.00;;;;5069329;28;20759;-66
2022/06/15 03:02:45;;;;;;;6.60;5.30;;;;;11.70;97258.00;;;;5069666;28;20208;-66
2022/06/15 03:05:34;;;;;;;8.87;5.80;;;;;11.70;97264.00;;;;5070022;28;20473;-67
2022/06/15 03:08:24;;;;;;;8.40;5.33;;;;;11.70;97260.00;;;;5068504;28;20204;-65
2022/06/15 03:11:13;;;;;;;6.20;5.40;;;;;11.30;97259.00;;;;5057727;28;20218;-66
2022/06/15 03:14:04;;;;;;;7.07;5.27;;;;;11.60;97252.00;;;;5068915;28;20208;-65
2022/06/15 03:16:53;;;;;;;7.80;5.40;;;;;11.40;97244.00;;;;5071618;28;20714;-66
2022/06/15 03:19:43;;;;;;;5.87;4.87;;;;;11.60;97256.00;;;;5070793;28;20231;-66
2022/06/15 03:22:33;;;;;;;7.23;5.63;;;;;11.70;97268.00;;;;5073294;28;20255;-66
2022/06/15 03:25:23;;;;;;;5.47;4.97;;;;;11.90;97271.00;;;;5073161;28;20235;-66
2022/06/15 03:28:12;;;;;;;7.83;5.60;;;;;11.70;97270.00;;;;5073130;28;20200;-66
2022/06/15 03:31:03;;;;;;;6.07;4.90;;;;;11.90;97278.00;;;;5062383;28;20219;-66
2022/06/15 03:33:53;;;;;;;7.03;6.33;;;;;11.90;97278.00;;;;5065992;28;20195;-66
2022/06/15 03:36:42;;;;;;;7.67;5.50;;;;;12.10;97272.00;;;;5072631;28;20230;-66
2022/06/15 03:39:31;;;;;;;6.23;4.63;;;;;12.10;97278.00;;;;5072514;28;20216;-66
2022/06/15 03:42:22;;;;;;;6.43;5.13;;;;;12.00;97269.00;;;;5072488;28;20242;-66
2022/06/15 03:45:13;;;;;;;5.40;4.87;;;;;12.00;97270.00;;;;5071914;28;20365;-67
2022/06/15 03:48:04;;;;;;;5.17;4.20;;;;;11.80;97270.00;;;;5070412;28;20716;-66
2022/06/15 03:50:53;;;;;;;6.30;4.33;;;;;11.60;97274.00;;;;5063710;28;20224;-66
2022/06/15 03:53:42;;;;;;;5.73;4.53;;;;;11.70;97274.00;;;;5071768;28;20243;-66
2022/06/15 03:56:42;;;;;;;6.13;5.50;;;;;11.90;97266.00;;;;5071451;28;20216;-66
2022/06/15 03:59:31;;;;;;;7.30;5.60;;;;;12.00;97265.00;;;;5059942;28;20216;-66
2022/06/15 04:02:20;;;;;;;6.47;4.80;;;;;12.10;97272.00;;;;5071980;28;20208;-66
2022/06/15 04:05:15;;;;;;;7.83;4.53;;;;;12.20;97274.00;;;;5071125;28;20224;-66
2022/06/15 04:11:58;;;;;;;12.00;7.07;;;;;11.90;97267.00;;;;5061843;28;20584;-66
2022/06/15 04:14:22;;;;;;;6.60;5.33;;;;;12.40;97277.00;;;;5071810;28;20211;-65
2022/06/15 04:17:13;;;;;;;7.03;5.30;;;;;12.40;97276.00;;;;5069546;28;20219;-66
2022/06/15 04:23:12;;;;;;;6.87;5.17;;;;;12.80;97275.00;;;;5065005;28;20196;-66
2022/06/15 04:26:04;;;;;;;6.10;5.50;;;;;12.90;97279.00;;;;5066466;28;20219;-66
2022/06/15 04:28:53;;;;;;;4.77;4.30;;;;;13.30;97283.00;;;;5059989;28;20200;-66
2022/06/15 04:31:42;;;;;;;4.97;4.40;;;;;13.10;97277.00;;;;5069132;28;20214;-65
2022/06/15 04:34:31;;;;;;;7.40;5.17;;;;;13.40;97279.00;;;;5064918;28;20691;-66
2022/06/15 04:37:20;;;;;;;5.63;4.63;;;;;13.50;97283.00;;;;5071463;28;20244;-66
2022/06/15 04:40:12;;;;;;;4.93;4.43;;;;;13.70;97271.00;;;;5071055;28;20223;-66
2022/06/15 04:43:02;;;;;;;9.50;4.87;;;;;13.60;97275.00;;;;5070391;28;20204;-66
2022/06/15 04:45:51;;;;;;;5.80;5.30;;;;;13.60;97272.00;;;;5070217;28;20764;-65
2022/06/15 04:48:41;;;;;;;5.00;4.40;;;;;13.50;97276.00;;;;5064909;28;20211;-66
2022/06/15 04:51:30;;;;;;;5.83;4.07;;;;;13.80;97260.00;;;;5064098;28;20195;-66
2022/06/15 04:54:19;;;;;;;9.60;5.23;;;12.50;99.90;13.90;97268.00;;;;5070564;28;20222;-66
2022/06/15 04:57:09;;;;;;;7.93;5.23;;;12.60;99.90;14.00;97276.00;;;;5070917;28;20207;-66
2022/06/15 04:59:58;;;;;;;5.67;4.67;;;12.70;99.90;14.10;97268.00;;;;5062740;28;20216;-65
2022/06/15 05:02:47;;;;;;;8.23;5.13;;;12.70;99.90;14.20;97265.00;;;;5061339;28;20877;-67
2022/06/15 05:05:36;;;;;;;4.57;4.17;;;12.80;99.90;14.10;97267.00;;;;5064736;28;20227;-66
2022/06/15 05:08:26;;;;;;;9.70;4.70;;;12.90;99.90;14.20;97262.00;;;;5055925;28;20204;-66
2022/06/15 05:11:14;;;;;;;8.60;4.77;;;13.00;99.90;14.60;97269.00;;;;5053675;28;20561;-66
2022/06/15 05:14:05;;;;;;;5.63;5.13;;;13.20;99.90;14.70;97271.00;;;;5071414;28;20622;-66
2022/06/15 05:16:54;;;;;;;6.60;5.23;;;13.30;99.90;15.00;97272.00;;;;5068571;28;20220;-67
2022/06/15 05:19:43;;;;;;;5.70;4.60;;;13.40;99.90;15.10;97267.00;;;;5054823;28;20236;-66
2022/06/15 05:22:32;;;;;;;5.60;5.10;;;13.50;99.90;15.30;97272.00;;;;5059636;28;20207;-67
2022/06/15 05:25:21;;;;;;;9.67;5.97;;;13.70;99.90;15.50;97265.00;;;;5070372;28;20215;-66
2022/06/15 05:28:12;;;;;;;8.13;5.77;;;13.80;99.90;15.50;97270.00;;;;5065249;28;20203;-67
2022/06/15 05:31:06;;;;;;;8.27;5.47;;;14.00;99.90;16.20;97268.00;;;;5063801;28;20710;-67
2022/06/15 05:33:57;;;;;;;12.13;5.60;;;14.20;99.90;16.30;97262.00;;;;5057355;28;20204;-67
2022/06/15 05:36:46;;;;;;;6.10;5.03;;;14.40;99.90;16.40;97268.00;;;;5060786;28;20232;-67
2022/06/15 05:39:34;;;;;;;7.07;5.50;;;14.60;99.90;16.70;97272.00;;;;5058380;28;20702;-67
2022/06/15 05:42:26;;;;;;;8.07;5.03;;;14.80;99.90;17.20;97270.00;;;;5062052;28;20200;-68
2022/06/15 05:45:15;;;;;;;8.30;5.60;;;15.00;99.90;17.10;97272.00;;;;5062872;28;20216;-67
2022/06/15 05:48:05;;;;;;;9.57;6.17;;;15.20;99.90;16.90;97257.00;;;;5056556;28;20576;-68
2022/06/15 05:50:54;;;;;;;7.33;6.00;;;15.40;99.90;17.30;97268.00;;;;5070655;28;20196;-67
2022/06/15 05:53:43;;;;;;;12.07;5.40;;;15.50;99.90;17.50;97259.00;;;;5058469;28;20220;-68
2022/06/15 05:56:33;;;;;;;9.90;5.80;;;15.60;99.90;17.50;97262.00;;;;5064754;28;20228;-67
2022/06/15 05:59:22;;;;;;;7.83;5.80;;;15.80;99.90;17.70;97262.00;;;;5062700;28;20203;-66
2022/06/15 06:02:12;;;;;;;5.97;5.23;;;15.90;99.90;18.00;97265.00;;;;5055524;28;20197;-66
2022/06/15 06:05:02;;;;;;;8.90;5.97;;;16.10;99.90;18.30;97267.00;;;;5057679;28;20212;-65
2022/06/15 06:07:51;;;;;;;7.33;5.30;;;16.30;99.90;18.60;97262.00;;;;5057527;28;20225;-66
2022/06/15 06:10:40;;;;;;;6.10;4.50;;;16.50;99.90;18.80;97267.00;;;;5063892;28;20200;-65
2022/06/15 06:13:30;;;;;;;5.67;4.73;;;16.70;99.90;19.00;97258.00;;;;5062027;28;20678;-66
2022/06/15 06:16:20;;;;;;;9.33;6.07;;;16.90;99.90;19.20;97268.00;;;;5056200;28;20230;-66
2022/06/15 06:19:08;;;;;;;11.00;5.13;;;17.10;99.90;19.30;97253.00;;;;5058423;28;20548;-66
2022/06/15 06:21:59;;;;;;;10.53;5.37;;;17.20;99.90;19.70;97263.00;;;;5054316;28;20192;-66
2022/06/15 06:24:47;;;;;;;7.90;4.47;;;17.40;99.90;19.80;97263.00;;;;5058903;28;20199;-66
2022/06/15 06:27:36;;;;;;;12.20;5.50;;;17.60;99.90;19.90;97272.00;;;;5065867;28;20192;-66
2022/06/15 06:30:25;;;;;;;7.37;4.53;;;17.80;99.90;19.90;97259.00;;;;5063742;28;20248;-66
2022/06/15 06:33:14;;;;;;;12.73;5.13;;;18.00;99.90;20.10;97259.00;;;;5059143;28;20680;-66
2022/06/15 06:36:07;;;;;;;10.90;5.77;;;18.10;99.90;20.20;97254.00;;;;5059322;28;20725;-66
2022/06/15 06:38:57;;;;;;;9.63;4.87;;;18.20;99.90;20.50;97261.00;;;;5061748;28;20196;-66
2022/06/15 06:41:46;;;;;;;5.83;4.80;;;18.40;99.90;20.70;97260.00;;;;5059499;28;20227;-66
2022/06/15 06:44:36;;;;;;;7.63;4.27;;;18.50;99.90;20.90;97262.00;;;;5056154;28;20204;-66
2022/06/15 06:47:25;;;;;;;5.17;3.60;;;18.70;99.90;21.10;97261.00;;;;5062089;28;20203;-65
2022/06/15 06:50:13;;;;;;;6.03;4.40;;;18.90;99.90;21.20;97268.00;;;;5063616;28;20317;-66
2022/06/15 06:53:02;;;;;;;4.20;3.80;;;19.10;99.90;21.00;97260.00;;;;5065283;28;20674;-66
2022/06/15 06:55:52;;;;;;;5.93;3.77;;;19.20;99.90;21.30;97265.00;;;;5059923;28;20246;-66
2022/06/15 06:58:41;;;;;;;4.70;2.97;;;19.30;99.90;21.50;97263.00;;;;5062816;28;20215;-66
2022/06/15 07:01:30;;;;;;;6.13;3.47;;;19.40;99.90;21.60;97262.00;;;;5069415;28;20231;-66
2022/06/15 07:04:19;;;;;;;3.77;3.40;;;19.60;99.90;21.40;97259.00;;;;5068480;28;20200;-66
2022/06/15 07:07:08;;;;;;;3.43;3.13;;;19.70;99.90;21.50;97262.00;;;;5068591;28;20218;-66
2022/06/15 07:09:57;;;;;;;3.90;3.23;;;19.70;99.90;21.70;97266.00;;;;5067986;28;20710;-66
2022/06/15 07:12:47;;;;;;;3.87;3.57;;;19.80;99.90;21.80;97253.00;;;;5065457;28;20199;-66
2022/06/15 07:15:39;;;;;;;3.13;2.93;;;19.90;99.90;22.20;97253.00;;;;5068341;28;20295;-66
2022/06/15 07:18:28;;;;;;;5.23;4.70;;;20.00;99.90;22.40;97245.00;;;;5066707;28;20216;-66
2022/06/15 07:21:21;;;;;;;3.77;3.43;;;20.20;99.90;22.10;97249.00;;;;5068636;28;20219;-66
2022/06/15 07:24:10;;;;;;;5.50;2.67;;;20.30;99.90;22.10;97249.00;;;;5069792;28;20215;-66
2022/06/15 07:26:59;;;;;;;3.00;2.70;;;20.40;99.90;22.20;97249.00;;;;5068029;28;20207;-66
2022/06/15 07:29:49;;;;;;;4.13;3.07;;;20.50;99.90;22.10;97247.00;;;;5055917;28;20200;-66
2022/06/15 07:32:40;;;;;;;6.17;3.73;;;20.50;99.90;22.70;97241.00;;;;5053411;28;20220;-66
2022/06/15 07:35:33;;;;;;;4.77;3.07;;;20.60;99.90;22.50;97236.00;;;;5057206;28;20242;-66
2022/06/15 07:38:22;;;;;;;3.70;3.30;;;20.70;99.90;22.60;97233.00;;;;5051050;28;20199;-66
2022/06/15 07:41:18;;;;;;;7.10;3.30;;;20.80;99.90;23.10;97231.00;;;;5065792;28;20293;-66
2022/06/15 07:44:07;;;;;;;3.87;2.50;;;21.00;99.90;23.40;97236.00;;;;5068373;28;20200;-66
2022/06/15 07:50:00;;;;;;;2.90;2.53;;;21.30;99.90;23.60;97234.00;;;;5068132;28;20215;-66
2022/06/15 07:53:06;;;;;;;8.57;3.07;;;21.50;99.90;22.70;97243.00;;;;5051678;28;20201;-66
2022/06/15 07:55:56;;;;;;;6.47;4.00;;;21.50;99.90;23.00;97233.00;;;;5059290;28;20234;-66
2022/06/15 07:58:45;;;;;;;3.30;3.00;;;21.50;99.90;23.80;97238.00;;;;5058320;28;20196;-66
2022/06/15 08:01:34;;;;;;;5.57;3.23;;;21.60;99.90;23.60;97225.00;;;;5052087;28;20226;-68
2022/06/15 08:04:24;;;;;;;5.50;3.40;;;21.80;99.90;23.80;97226.00;;;;5068385;28;20942;-67
2022/06/15 08:07:16;;;;;;;5.63;3.00;;;21.90;99.90;24.40;97230.00;;;;5067928;28;20585;-66
2022/06/15 08:10:07;;;;;;;4.40;3.53;;;22.00;99.90;24.10;97233.00;;;;5061111;28;20220;-67
2022/06/15 08:12:56;;;;;;;3.03;2.83;;;22.20;99.90;24.50;97234.00;;;;5065666;28;20200;-66
2022/06/15 08:15:47;;;;;;;4.83;2.97;;;22.40;99.90;24.40;97224.00;;;;5065672;28;20223;-66
2022/06/15 08:18:42;;;;;;;6.33;3.37;;;22.50;99.90;24.90;97235.00;;;;5059123;28;20668;-65
2022/06/15 08:21:37;;;;;;;4.93;3.00;;;22.70;99.90;24.80;97230.00;;;;5061826;28;20604;-66
2022/06/15 08:24:26;;;;;;;11.07;3.70;;;22.80;99.90;25.10;97226.00;;;;5061153;28;20188;-66
2022/06/15 08:27:19;;;;;;;5.47;3.33;;;22.90;99.90;25.30;97221.00;;;;5060561;28;20212;-65
2022/06/15 08:30:12;;;;;;;6.13;3.37;;;23.10;99.90;25.20;97217.00;;;;5060620;28;20196;-66
2022/06/15 08:33:00;;;;;;;4.90;2.90;;;23.20;99.90;24.70;97218.00;;;;5060771;28;20207;-65
2022/06/15 08:35:50;;;;;;;6.90;3.57;;;23.20;99.20;24.70;97225.00;;;;5064036;28;20228;-66
2022/06/15 08:38:41;;;;;;;6.73;3.13;;;23.10;98.80;24.50;97222.00;;;;5060555;28;20227;-65
2022/06/15 08:50:36;;;;;;;6.03;3.57;;;23.10;98.50;25.30;97211.00;;;;5056535;28;20199;-65
2022/06/15 08:53:33;;;;;;;6.10;3.73;;;23.40;97.60;25.00;97219.00;;;;5065488;28;20215;-65
2022/06/15 08:56:31;;;;;;;7.07;3.50;;;23.50;96.10;25.70;97210.00;;;;5070185;28;20215;-66
2022/06/15 08:59:29;;;;;;;4.47;3.07;;;23.60;97.00;26.40;97208.00;;;;5066717;28;20199;-66
2022/06/15 09:02:28;;;;;;;8.73;4.20;;;23.80;97.10;26.20;97215.00;;;;5061179;28;20246;-66
2022/06/15 09:05:33;;;;;;;3.53;3.23;;;24.00;96.00;25.10;97213.00;;;;5071989;28;20337;-66
2022/06/15 09:09:01;;;;;;;4.17;3.37;;;23.90;93.80;25.70;97209.00;;;;5071166;28;20204;-66
2022/06/15 09:15:34;;;;;;;4.37;3.27;;;23.90;94.90;26.10;97207.00;;;;5060278;28;20215;-66
2022/06/15 09:18:28;;;;;;;7.40;3.43;;;24.10;96.30;26.40;97199.00;;;;5068099;28;20214;-65
2022/06/15 09:21:29;;;;;;;7.00;3.30;;;24.30;95.10;25.10;97201.00;;;;5069673;28;20247;-66
2022/06/15 09:24:25;;;;;;;5.00;3.27;;;24.30;93.90;25.70;97201.00;;;;5070780;28;20213;-66
2022/06/15 09:27:21;;;;;;;5.60;3.43;;;24.30;95.60;26.50;97196.00;;;;5065451;28;20211;-65
2022/06/15 09:30:14;;;;;;;4.13;3.73;;;24.40;94.50;27.20;97193.00;;;;5058611;28;20201;-66
2022/06/15 09:33:10;;;;;;;5.00;2.97;;;24.70;94.30;27.40;97191.00;;;;5060382;28;20672;-66
2022/06/15 09:36:07;;;;;;;6.27;3.73;;;24.90;93.80;26.80;97197.00;;;;5059510;28;20235;-65
2022/06/15 09:38:56;;;;;;;3.57;3.20;;;25.20;92.70;26.60;97192.00;;;;5068168;28;20199;-66
2022/06/15 09:41:54;;;;;;;3.37;3.07;;;25.10;91.00;27.30;97188.00;;;;5070315;28;20612;-66
2022/06/15 09:44:56;;;;;;;3.97;3.13;;;25.20;91.80;27.70;97191.00;;;;5071318;28;20208;-66
2022/06/15 09:47:53;;;;;;;6.00;3.87;;;25.30;90.80;27.80;97182.00;;;;5069212;28;20286;-66
2022/06/15 09:50:49;;;;;;;3.70;3.00;;;25.50;91.00;27.30;97183.00;;;;5056435;28;20208;-66
2022/06/15 09:53:52;;;;;;;6.57;3.43;;;25.60;91.30;27.90;97181.00;;;;5069317;28;20202;-65
2022/06/15 09:56:41;;;;;;;6.50;3.13;;;25.80;92.00;27.70;97172.00;;;;5070546;28;20274;-65
2022/06/15 09:59:33;;;;;;;5.33;3.93;;;25.80;90.10;28.10;97171.00;;;;5069997;28;20227;-65
2022/06/15 10:02:30;;;;;;;4.33;3.20;;;25.90;88.50;27.50;97166.00;;;;5060552;28;20233;-66
2022/06/15 10:05:25;;;;;;;5.97;4.27;;;26.00;87.80;27.50;97166.00;;;;5070529;28;20233;-66
2022/06/15 10:08:16;;;;;;;4.13;3.70;;;26.10;87.80;26.80;97160.00;;;;5069917;28;20225;-66
2022/06/15 10:11:17;;;;;;;4.23;2.93;;;25.90;85.50;28.40;97163.00;;;;5070485;28;20214;-66
2022/06/15 10:14:24;;;;;;;5.87;3.83;;;26.00;85.30;28.20;97157.00;;;;5068367;28;20203;-66
2022/06/15 10:17:28;;;;;;;7.80;3.80;;;26.20;83.50;28.40;97145.00;;;;5061472;28;20216;-65
2022/06/15 10:20:31;;;;;;;3.37;2.80;;;26.30;82.00;28.00;97150.00;;;;5056614;28;20205;-66
2022/06/15 10:23:24;;;;;;;6.13;3.40;;;26.50;83.30;28.10;97152.00;;;;5056421;28;20274;-66
2022/06/15 10:26:28;;;;;;;5.70;3.33;;;26.30;86.70;28.60;97149.00;;;;5061646;28;20221;-66
2022/06/15 10:29:31;;;;;;;6.20;3.43;;;26.40;83.50;26.60;97133.00;;;;5057913;28;20206;-67
2022/06/15 10:32:22;;;;;;;7.37;3.97;;;26.30;79.20;26.60;97128.00;;;;5060558;28;20218;-66
2022/06/15 10:35:19;;;;;;;3.93;3.53;;;26.10;81.40;25.90;97126.00;;;;5058357;28;20221;-68
2022/06/15 10:38:15;;;;;;;7.00;4.03;;;25.80;82.50;27.50;97122.00;;;;5067176;28;20584;-66
2022/06/15 10:44:07;;;;;;;5.77;4.10;;;26.10;84.30;28.80;97124.00;;;;5065771;28;20243;-65
2022/06/15 10:47:03;;;;;;;5.83;3.97;;;26.60;81.10;28.00;97119.00;;;;5060781;28;20247;-66
2022/06/15 10:49:59;;;;;;;4.53;3.50;;;26.60;82.00;28.80;97114.00;;;;5063682;28;20223;-66
2022/06/15 10:52:56;;;;;;;7.77;3.67;;;26.80;83.60;26.70;97100.00;;;;5061980;28;20203;-67
2022/06/15 11:02:20;;;;;;;4.17;3.23;;;26.20;80.20;27.10;97113.00;;;;5055315;28;20230;-67
2022/06/15 11:05:19;;;;;;;5.53;3.20;;;26.30;81.60;28.40;97118.00;;;;5056925;28;20221;-66
2022/06/15 11:08:18;;;;;;;6.83;3.63;;;26.40;80.50;29.70;97113.00;;;;5058816;28;20219;-65
2022/06/15 11:11:17;;;;;;;4.73;3.43;;;26.80;83.50;28.90;97108.00;;;;5068326;28;20205;-66
2022/06/15 11:14:13;;;;;;;5.57;4.23;;;27.20;80.60;30.10;97101.00;;;;5063088;28;20197;-66
2022/06/15 11:20:44;;;;;;;4.13;3.60;;;28.00;81.40;28.20;97074.00;;;;5066635;28;20204;-67
2022/06/15 11:23:47;;;;;;;5.63;3.67;;;28.00;75.70;29.00;97083.00;;;;5062986;28;20904;-67
2022/06/15 11:26:55;;;;;;;10.00;3.67;;;27.60;77.10;30.20;97083.00;;;;5061215;28;20239;-66
2022/06/15 11:29:52;;;;;;;4.73;3.07;;;27.90;78.00;31.20;97083.00;;;;5050544;28;20209;-67
2022/06/15 11:32:46;;;;;;;3.30;3.00;;;28.20;76.20;30.60;97081.00;;;;5057092;28;20207;-66
2022/06/15 11:35:41;;;;;;;4.37;3.27;;;28.50;75.80;28.60;97072.00;;;;5057396;28;20221;-67
2022/06/15 11:38:45;;;;;;;5.57;2.97;;;28.20;71.30;28.90;97066.00;;;;5068569;28;20599;-65
2022/06/15 11:41:44;;;;;;;5.10;3.37;;;28.00;72.90;29.30;97059.00;;;;5066473;28;20206;-65
2022/06/15 11:44:36;;;;;;;4.93;3.93;;;27.90;70.70;29.60;97058.00;;;;5059776;28;20202;-66
2022/06/15 11:47:37;;;;;;;6.60;3.40;;;27.90;74.60;31.30;97068.00;;;;5066494;28;20249;-65
2022/06/15 11:50:34;;;;;;;6.40;3.50;;;28.20;76.20;31.70;97070.00;;;;5065855;28;20197;-66
2022/06/15 11:53:37;;;;;;;5.47;2.97;;;28.70;76.10;32.00;97073.00;;;;5058794;28;20570;-66
2022/06/15 11:56:39;;;;;;;5.37;3.10;;;29.10;72.70;32.20;97066.00;;;;5066337;28;20223;-65
2022/06/15 11:59:39;;;;;;;7.70;3.27;;;29.50;72.40;31.80;97074.00;;;;5064233;28;20678;-66
2022/06/15 12:02:52;;;;;;;7.47;4.00;;;29.70;69.90;32.50;97069.00;;;;5059720;28;20222;-66
2022/06/15 12:05:46;;;;;;;5.70;2.90;;;29.80;70.30;32.50;97065.00;;;;5066242;28;20736;-66
2022/06/15 12:08:48;;;;;;;3.83;3.15;;;30.00;68.80;32.60;97063.00;;;;5062188;28;20261;-65
2022/06/15 12:15:01;;;;;;;7.40;3.80;;;30.30;66.90;30.90;97047.00;;;;5066859;28;20243;-66
2022/06/15 12:17:58;;;;;;;7.60;3.30;;;30.00;63.40;30.60;97046.00;;;;5062811;28;20213;-66
2022/06/15 12:20:55;;;;;;;5.63;3.40;;;29.60;67.70;32.70;97046.00;;;;5064098;28;20675;-66
2022/06/15 12:23:59;;;;;;;3.30;3.00;;;29.80;70.10;32.40;97046.00;;;;5064126;28;20245;-65
2022/06/15 12:27:01;;;;;;;4.20;3.42;;;30.10;67.20;31.10;97044.00;;;;5060844;28;20601;-66
2022/06/15 12:29:57;;;;;;;3.13;2.92;;;29.80;66.90;32.70;97043.00;;;;5057420;28;20212;-65
2022/06/15 12:33:01;;;;;;;5.60;3.67;;;29.90;68.60;32.20;97035.00;;;;5060725;28;20607;-65
2022/06/15 12:35:56;;;;;;;5.68;3.33;;;30.20;65.40;33.10;97037.00;;;;5069238;28;20215;-66
2022/06/15 12:38:58;;;;;;;5.93;3.58;;;30.50;66.10;31.30;97041.00;;;;5070863;28;20214;-66
2022/06/15 12:45:01;;;;;;;6.25;3.75;;;30.50;64.90;32.40;97050.00;;;;5061927;28;20219;-66
2022/06/15 12:47:56;;;;;;;5.07;3.47;;;30.70;66.20;31.70;97037.00;;;;5058710;28;20212;-64
2022/06/15 12:50:55;;;;;;;5.07;3.25;;;30.40;62.90;32.30;97046.00;;;;5058818;28;20209;-65
2022/06/15 12:53:58;;;;;;;3.75;3.22;;;30.40;63.70;30.50;97033.00;;;;5070288;28;20215;-66
2022/06/15 12:56:57;;;;;;;6.60;3.00;;;30.30;67.50;31.40;97034.00;;;;5068672;28;20222;-66
2022/06/15 12:59:53;;;;;;;5.78;3.22;;;30.00;64.60;30.10;97029.00;;;;5071257;28;20203;-68
2022/06/15 13:02:52;;;;;;;4.85;3.28;;;29.90;63.90;31.50;97030.00;;;;5070079;28;20230;-64
2022/06/15 13:05:41;;;;;;;4.20;3.33;;;29.70;65.00;31.30;97030.00;;;;5060598;28;20220;-67
2022/06/15 13:08:35;;;;;;;7.38;2.95;;;29.90;64.80;33.20;97033.00;;;;5051086;28;20219;-65
2022/06/15 13:11:26;;;;;;;4.75;3.03;;;30.20;66.10;34.30;97032.00;;;;5048981;28;20215;-63
2022/06/15 13:14:22;;;;;;;5.20;3.38;;;30.70;66.50;34.70;97038.00;;;;5054252;28;20234;-64
2022/06/15 13:17:15;;;;;;;4.72;2.92;;;31.30;65.50;33.80;97031.00;;;;5049260;28;20226;-65
2022/06/15 13:20:08;;;;;;;4.15;3.22;;;31.50;63.60;34.10;97051.00;;;;5053887;28;20206;-65
2022/06/15 13:22:57;;;;;;;4.40;2.53;;;31.60;63.40;33.80;97038.00;;;;5052960;28;20848;-65
2022/06/15 13:25:52;;;;;;;6.70;3.85;;;31.50;63.00;33.10;97032.00;;;;5048778;28;20224;-65
2022/06/15 13:28:47;;;;;;;4.18;2.95;;;31.50;60.30;32.20;97040.00;;;;5052826;28;20208;-66
2022/06/15 13:31:46;;;;;;;4.65;3.17;;;31.50;59.70;30.90;97020.00;;;;5054371;28;20207;-68
2022/06/15 13:34:48;;;;;;;4.00;3.13;;;30.60;59.90;30.30;97018.00;;;;5054542;28;20229;-67
2022/06/15 13:37:36;;;;;;;5.18;3.20;;;30.20;59.80;30.60;97020.00;;;;5051124;28;21100;-66
2022/06/15 13:40:25;;;;;;;3.92;3.47;;;29.90;62.60;31.40;97016.00;;;;5053379;28;20606;-65
2022/06/15 13:43:14;;;;;;;4.53;3.15;;;29.80;62.10;32.00;97024.00;;;;5049668;28;20211;-66
2022/06/15 13:46:22;;;;;;;3.55;3.25;;;30.00;62.40;32.30;97019.00;;;;5051645;28;20218;-65
2022/06/15 13:49:18;;;;;;;3.92;3.53;;;30.40;61.80;32.90;97019.00;;;;5042722;28;20219;-67
2022/06/15 13:52:18;;;;;;;5.50;3.58;;;30.60;62.50;31.70;97013.00;;;;5052289;28;20196;-65
2022/06/15 13:55:38;;;;;;;5.03;3.40;;;30.60;64.20;32.50;97011.00;;;;5056331;28;20238;-66
2022/06/15 13:59:01;;;;;;;5.55;3.00;;;30.60;60.80;33.70;97003.00;;;;5052555;28;20596;-65
2022/06/15 14:02:26;;;;;;;8.93;3.15;;;30.60;63.60;31.60;97010.00;;;;5056606;28;20209;-66
2022/06/15 14:05:42;;;;;;;3.90;3.15;;;31.00;65.10;31.30;97006.00;;;;5057018;28;20228;-65